Aerodrome Latest Weathers

# Airport/Station Observation Time (Local Time) Wind Visibility (km) Weather Temp. (°C) Dewdrop (°C) Air Pressure (hPa)
Direction (from) Speed (km/h)
1 Sultan Iskandar Muda - Banda Aceh 2021-07-24 15:30:00 WIB Selatan 18.5 >=10 Cerah - berawan 34 19 1007
2 Cut Nyak Dien Nagan Raya - Meulaboh, NAD 2021-07-24 15:00:00 WIB Barat 9.3 >=10 Berawan 32 27 1009
3 Malikus Saleh - Lhokseumawe 2021-07-24 15:00:00 WIB Timur Laut 14.8 9.0 Cerah - berawan 32 23 1008
4 Binaka - Gunung Sitoli 2021-07-24 15:00:00 WIB Timur Laut 9.3 8.0 Cerah - berawan 31 26 1008
5 Kualanamu International Airport - Deli Serdang 2021-07-24 15:00:00 WIB Timur Laut 24.1 >=10 Berawan 31 26 1007
6 Dr. Ferdinand Lumban Tobing - Pinangsori (Sibolga) 2021-07-24 15:30:00 WIB Barat Laut 9.3 >=10 Berawan 31 22 1008
7 Silangit - Tapanuli Utara 2021-07-24 15:30:00 WIB Barat 14.8 8.0 Berawan 24 13 1017
8 Aek Godang - Padang Sidempuan 2021-07-24 15:30:00 WIB Barat 14.8 >=10 Cerah - berawan 31 20 1009
9 Minangkabau International Airport - Padang 2021-07-24 15:30:00 WIB Barat Daya 9.3 >=10 Cerah - berawan 31 22 1009
10 Sultan Syarif Kasim II - Pekanbaru 2021-07-24 15:00:00 WIB Barat Daya 13.0 >=10 Berawan 32 22 1006
11 Depati Parbo - Kerinci 2021-07-24 15:00:00 WIB Selatan 20.4 >=10 Berawan 29 20 1012
12 Japura - Rengat 2021-07-24 15:00:00 WIB Barat Daya 9.3 8.0 Berawan 33 24 1008
13 Fatmawati Sukarno - Bengkulu 2021-07-24 15:30:00 WIB Selatan 14.8 >=10 Cerah - berawan 31 24 1008
14 Raja Haji Abdullah - Tanjung Balai Karimun 2021-07-24 15:00:00 WIB Barat Daya 16.7 8.0 Berawan 33 25 1007
15 Sultan Thaha - Jambi 2021-07-24 15:30:00 WIB Tenggara 9.3 >=10 Berawan 32 25 1008
16 Hang Nadim - Batam 2021-07-24 15:30:00 WIB Selatan 20.4 >=10 Cerah - berawan 32 23 1009
17 Raja Haji Fisabilillah - Tanjung Pinang 2021-07-24 15:30:00 WIB Selatan 18.5 >=10 Berawan 31 24 1008
18 Dabo - Singkep 2021-07-24 15:00:00 WIB Selatan 13.0 8.0 Cerah - berawan 29 25 1009
19 Sultan Mahmud Badaruddin II - Palembang 2021-07-24 15:30:00 WIB Tenggara 7.4 >=10 Berawan 32 24 1008
20 Radin Inten II - Lampung 2021-07-24 15:30:00 WIB Tenggara 16.7 >=10 Berawan 30 23 1009
21 Depati Amir - Pangkal Pinang 2021-07-24 15:30:00 WIB Timur 13.0 >=10 Cerah - berawan 32 25 1008
22 Budiarto - Curug 2021-07-24 14:00:00 WIB Barat Laut 13.0 4.0 Hujan 30 23 1011
23 Soekarno Hatta - Jakarta 2021-07-24 15:30:00 WIB Utara 13.0 7.0 Berawan 29 24 1010
24 Halim Perdana Kusuma - Jakarta 2021-07-24 13:30:00 WIB Barat 5.6 4.0 Hujan ringan 28 24 1010
25 Husein Sastranegara - Bandung 2021-07-24 15:00:00 WIB Barat Laut 14.8 >=10 Berawan 25 21 1014
26 Suryadarma - Kalijati, Subang 2021-07-24 15:00:00 WIB Timur Laut 16.7 6.0 Berawan 31 25 1010
27 H.A.S. Hanandjoeddin - Tanjung Pandan 2021-07-24 15:30:00 WIB Selatan 1.9 6.0 Berawan 25 24 1009
28 Kertajati 2021-07-24 15:30:00 WIB Timur Laut 13.0 >=10 Cerah - berawan 32 22 1009
29 Wiriadinata - Cibeureum, Tasikmalaya 2021-07-24 15:00:00 WIB Timur Laut 5.6 5.0 Udara kabur 29 23 1013
30 Ranai - Natuna 2021-07-24 15:30:00 WIB Selatan 25.9 >=10 Berawan 32 26 1007
31 Cakrabhuwana / Penggung - Cirebon 2021-07-24 15:30:00 WIB Timur Laut 13.0 Cerah 31 23 1009
32 Tunggul Wulung - Cilacap 2021-07-24 14:00:00 WIB Tenggara 18.5 >=10 Cerah - berawan 30 24 1010
33 Supadio - Pontianak 2021-07-24 15:30:00 WIB Selatan 16.7 >=10 Berawan 33 23 1007
34 Rahadi Oesman - Ketapang 2021-07-24 15:30:00 WIB Selatan 16.7 >=10 Cerah - berawan 31 26 1008
35 Yogyakarta International Airport - Kulonprogo 2021-07-24 15:30:00 WIB Tenggara 22.2 >=10 Cerah - berawan 29 23 1010
36 Ahmad Yani - Semarang 2021-07-24 15:30:00 WIB Timur 16.7 8.0 Cerah - berawan 34 16 1009
37 Adi Sutjipto - Yogyakarta 2021-07-24 15:30:00 WIB Barat 13.0 8.0 Berawan 32 23 1009
38 Adi Soemarmo - Surakarta 2021-07-24 15:30:00 WIB Timur Laut 9.3 9.0 Cerah - berawan 33 17 1010
39 Tebelian - Sintang 2021-07-24 15:00:00 WIB Tenang >=10 Berawan 32 24 1007
40 Iskandar - Pangkalan Bun 2021-07-24 15:30:00 WIB Selatan 13.0 8.0 Berawan 31 25 1009
41 Nanga Pinoh 2021-07-24 15:00:00 WIB Selatan 9.3 >=10 Berawan 34 25 1008
42 Juanda - Surabaya 2021-07-24 15:30:00 WIB Timur Laut 16.7 >=10 Cerah - berawan 31 21 1010
43 Pangsuma - Putussibau 2021-07-24 13:00:00 WIB Timur 5.6 >=10 Cerah - berawan 33 24 1010
44 Haji Asan - Sampit 2021-07-24 15:30:00 WIB Tenggara 9.3 8.0 Hujan tiba-tiba di sekitarnya 30 25 1008
45 Noto Hadinegoro - Jember 2021-07-24 15:00:00 WIB Barat 18.5 >=10 Cerah - berawan 30 23 1012
46 Tjilik Riwut - Palangkaraya 2021-07-24 15:30:00 WIB Selatan 7.4 9.0 Berawan 32 25 1008
47 Banyuwangi 2021-07-24 15:00:00 WIB Tenggara 20.4 >=10 Cerah - berawan 28 22 1011
48 Beringin - Muara Teweh 2021-07-24 15:30:00 WIB Tenang 6.0 Berawan 27 25 1008
49 Sanggu - Buntok 2021-07-24 15:00:00 WIB Barat 5.6 >=10 Berawan 33 24 1009
50 H. Hasan Aroeboesman - Ende 2021-07-24 15:30:00 WIB Tenggara 9.3 8.0 Berawan 27 22 1011
51 Syamsudin Noor - Banjarmasin 2021-07-24 16:30:00 WITA Tenggara 5.6 >=10 Berawan 32 26 1008
52 I Gusti Ngurah Rai - Denpasar 2021-07-24 16:30:00 WITA Tenggara 24.1 >=10 Berawan 28 23 1011
53 Yuvai Semaring - Long Bawang 2021-07-24 15:00:00 WITA Barat Daya 20.4 >=10 Cerah - berawan 30 16 1014
54 Gusti Sjamsir Alam - Kota Baru 2021-07-24 16:30:00 WITA Tenggara 14.8 8.0 Berawan 30 25 1008
55 Bandara Internasional Lombok - Praya 2021-07-24 16:30:00 WITA Tenggara 24.1 8.0 Berawan 28 21 1011
56 Sultan Aji Muhammad Sulaiman - Sepinggan 2021-07-24 16:30:00 WITA Barat Daya 14.8 9.0 Berawan 30 26 1008
57 Aji Pangeran Tumenggung Pranoto - Samarinda 2021-07-24 16:30:00 WITA Selatan 9.3 >=10 Berawan 31 28 1008
58 Tanjung Harapan - Tanjung Selor 2021-07-24 16:30:00 WITA Tenggara 7.4 >=10 Cerah - berawan 35 27 1006
59 Sultan Muhammad Kaharuddin - Sumbawa Besar 2021-07-24 16:30:00 WITA Barat Laut 18.5 >=10 Cerah 31 21 1009
60 Kalimarau - Tanjung Redeb 2021-07-24 16:30:00 WITA Barat Daya 16.7 8.0 Cerah - berawan 34 23 1007
61 Juwata - Tarakan 2021-07-24 16:00:00 WITA Timur 7.4 >=10 Cerah - berawan 33 27 1007
62 Nunukan 2021-07-24 16:00:00 WITA Tenggara 14.8 >=10 Cerah - berawan 31 25 1006
63 Sultan Muhammad Salahuddin - Bima 2021-07-24 16:30:00 WITA Tenggara 22.2 >=10 Cerah - berawan 30 19 1010
64 Tambolaka - Sumba Barat 2021-07-24 16:00:00 WITA Utara 13.0 >=10 Cerah - berawan 29 20 1012
65 Sultan Hasanuddin - Makassar 2021-07-24 16:30:00 WITA Barat 13.0 >=10 Cerah - berawan 29 20 1010
66 Pongtiku - Tana Toraja 2021-07-24 16:00:00 WITA Timur 18.5 >=10 Berawan 27 21 1010
67 Komodo - Labuan Bajo 2021-07-24 16:30:00 WITA Barat 14.8 >=10 Cerah 31 22 1011
68 Mutiara SIS Al-Jufri - Palu 2021-07-24 16:30:00 WITA Utara 5.6 7.0 Hujan ringan 28 25 1010
69 Umbu Mehang Kunda - Waingapu 2021-07-24 16:00:00 WITA Timur 13.0 >=10 Cerah - berawan 29 22 1011
70 Andi Jemma - Masamba 2021-07-24 16:00:00 WITA Selatan 11.1 8.0 Berawan 30 24 1009
71 Frans Sales Lega - Ruteng 2021-07-24 16:30:00 WITA Utara 7.4 >=10 Cerah - berawan 26 18 1017
72 Kasiguncu - Poso 2021-07-24 16:00:00 WITA Timur Laut 13.0 7.0 Berawan 32 26 1008
73 Sultan Bantilan - Toli Toli 2021-07-24 14:00:00 WITA Barat Laut 9.3 >=10 Berawan 31 26 1008
74 SOA - Bajawa 2021-07-24 14:00:00 WITA Timur Laut 13.0 >=10 Cerah - berawan 32 16 1014
75 Sangia Nibandera - Kolaka 2021-07-24 14:00:00 WITA Timur Laut 9.3 >=10 Cerah - berawan 32 23 1010
76 Tardamu - Sabu 2021-07-24 16:30:00 WITA Tenggara 14.8 >=10 Cerah - berawan 29 22 1011
77 Fransiskus Xaverius Seda - Maumere 2021-07-24 16:30:00 WITA Barat Daya 20.4 >=10 Cerah - berawan 29 23 1011
78 Haluoleo - Kendari 2021-07-24 14:30:00 WITA Timur Laut 7.4 >=10 Berawan 29 22 1012
79 Beto Ambari - Bau Bau 2021-07-24 16:00:00 WITA Timur 7.4 >=10 Cerah - berawan 30 21 1012
80 Syukuran Aminuddin Amir - Luwuk 2021-07-24 16:00:00 WITA Barat Daya 18.5 >=10 Cerah - berawan 30 21 1008
81 Djalaluddin - Gorontalo 2021-07-24 16:30:00 WITA Selatan 13.0 >=10 Berawan 30 23 1008
82 Gewayantana - Larantuka 2021-07-24 16:00:00 WITA Barat 9.3 >=10 Cerah - berawan 32 21 1010
83 David Constantijn Saudale - Rote 2021-07-24 16:00:00 WITA Tenggara 16.7 >=10 Cerah - berawan 28 22 1016
84 El Tari - Kupang 2021-07-24 16:30:00 WITA Tenggara 16.7 >=10 Cerah - berawan 30 12 1011
85 Mali - Alor 2021-07-24 16:00:00 WITA Utara 9.3 >=10 Cerah - berawan 30 22 1010
86 Sam Ratulangi - Manado 2021-07-24 16:30:00 WITA Variabel 3.7 >=10 Berawan 30 22 1010
87 Naha - Tahuna 2021-07-24 16:00:00 WITA Barat 14.8 8.0 Cerah - berawan 31 25 1008
88 Emalamo - Sanana 2021-07-24 17:00:00 WIT Timur Laut 11.1 8.0 Berawan 30 25 1010
89 Namniwel - Namlea 2021-07-24 17:00:00 WIT Barat Daya 7.4 >=10 Cerah - berawan 27 24 1008
90 Sultan Babullah - Ternate 2021-07-24 17:30:00 WIT Barat Daya 11.1 >=10 Berawan 30 25 1010
91 Oesman Sadik - Labuha 2021-07-24 15:00:00 WIT Barat 7.4 8.0 Berawan 29 25 1009
92 Gamar Malamo - Galela 2021-07-24 17:00:00 WIT Tenang 9.0 Guntur 28 24 1009
93 Pattimura - Ambon 2021-07-24 17:30:00 WIT Variabel 3.7 9.0 Berawan 26 24 1010
94 Amahai 2021-07-24 17:00:00 WIT Tenang 8.0 Hujan 26 25 1010
95 Bandaneira - Banda 2021-07-24 17:00:00 WIT Utara 1.9 4.0 Hujan 26 25 1011
96 Domine Eduard Osok - Sorong 2021-07-24 17:30:00 WIT Tenggara 7.4 8.0 Berawan 26 24 1009
97 Mathilda Batlayeri - Saumlaki 2021-07-24 17:00:00 WIT Tenggara 9.3 >=10 Cerah - berawan 28 23 1011
98 Dumatubun - Langgur 2021-07-24 17:00:00 WIT Timur 7.4 9.0 Berawan 28 24 1010
99 Utarom - Kaimana 2021-07-24 15:00:00 WIT Selatan 9.3 8.0 Berawan 29 24 1010
100 Rendani - Manokwari 2021-07-24 17:00:00 WIT Tenang 7.0 Berawan 24 23 1008
101 Douw Aturure - Nabire 2021-07-24 17:00:00 WIT Tenang 7.0 Berawan 28 23 1009
102 Frans Kaisiepo - Biak 2021-07-24 17:30:00 WIT Variabel 3.7 8.0 Berawan 26 25 1011
103 Enarotali 2021-07-24 17:00:00 WIT Tenang 4.0 Hujan ringan 18 16 1009
104 Mozes Kilangin - Timika 2021-07-24 15:00:00 WIT Timur 5.6 6.0 Berawan 26 24 1011
105 Mararena / Orai - Sarmi 2021-07-24 17:00:00 WIT Barat Laut 11.1 9.0 Berawan 27 23 1010
106 Wamena 2021-07-24 17:00:00 WIT Tenggara 13.0 6.0 Gerimis ringan 17 17 1020
107 Mopah - Merauke 2021-07-24 17:00:00 WIT Selatan 14.8 >=10 Berawan 27 22 1010
108 Sentani - Jayapura 2021-07-24 17:30:00 WIT Tenang >=10 Berawan 26 23 1009

Satellite Images

Wave Height Forecast

Wind Forecast

Forest Fires